createdAt,value
2019-01-25T00:01:23.784Z,28.00
2019-01-25T00:03:54.760Z,25.67
2019-01-25T00:06:26.698Z,29.90
2019-01-25T00:08:58.054Z,28.27
2019-01-25T00:11:29.440Z,26.93
2019-01-25T00:14:02.291Z,29.53
2019-01-25T00:16:33.642Z,28.33
2019-01-25T00:19:04.860Z,29.83
2019-01-25T00:21:36.618Z,29.27
2019-01-25T00:24:10.637Z,31.97
2019-01-25T00:26:42.016Z,29.20
2019-01-25T00:29:13.028Z,26.90
2019-01-25T00:31:44.290Z,27.70
2019-01-25T00:34:15.296Z,27.17
2019-01-25T00:36:46.707Z,28.87
2019-01-25T00:39:19.027Z,26.70
2019-01-25T00:41:50.484Z,26.70
2019-01-25T00:44:22.600Z,24.23
2019-01-25T00:46:53.905Z,27.17
2019-01-25T00:49:25.232Z,25.67
2019-01-25T00:51:56.398Z,28.07
2019-01-25T00:54:27.850Z,26.60
2019-01-25T00:56:59.058Z,27.33
2019-01-25T00:59:30.755Z,26.83
2019-01-25T01:02:03.219Z,26.68
2019-01-25T01:04:35.966Z,29.30
2019-01-25T01:07:07.316Z,26.57
2019-01-25T01:09:38.716Z,24.23
2019-01-25T01:12:09.833Z,26.60
2019-01-25T01:14:42.047Z,25.40
2019-01-25T01:17:13.861Z,23.62
2019-01-25T01:19:45.959Z,25.00
2019-01-25T01:22:17.081Z,24.80
2019-01-25T01:24:48.288Z,23.57
2019-01-25T01:27:19.714Z,24.93
2019-01-25T01:29:51.033Z,27.27
2019-01-25T01:32:22.165Z,24.00
2019-01-25T01:34:54.129Z,28.80
2019-01-25T01:37:26.449Z,24.63
2019-01-25T01:39:57.967Z,27.47
2019-01-25T01:42:30.533Z,28.03
2019-01-25T01:45:02.505Z,27.27
2019-01-25T01:47:33.754Z,24.47
2019-01-25T01:50:07.587Z,25.63
2019-01-25T01:52:38.912Z,26.68
2019-01-25T01:55:11.483Z,23.97
2019-01-25T01:57:46.255Z,25.17
2019-01-25T02:00:28.883Z,26.62
2019-01-25T02:03:00.354Z,23.47
2019-01-25T02:05:32.800Z,26.27
2019-01-25T02:08:04.118Z,26.33
2019-01-25T02:10:35.832Z,26.17
2019-01-25T02:13:07.200Z,27.05
2019-01-25T02:15:38.572Z,31.03
2019-01-25T02:18:10.783Z,28.02
2019-01-25T02:20:41.975Z,29.07
2019-01-25T02:23:14.042Z,27.45
2019-01-25T02:25:45.653Z,29.83
2019-01-25T02:28:16.790Z,26.55
2019-01-25T02:30:48.040Z,28.77
2019-01-25T02:33:19.282Z,27.40
2019-01-25T02:35:50.722Z,25.43
2019-01-25T02:38:21.931Z,27.13
2019-01-25T02:40:53.046Z,27.17
2019-01-25T02:43:24.389Z,25.33
2019-01-25T02:45:55.752Z,26.80
2019-01-25T02:48:27.006Z,23.40
2019-01-25T02:50:58.615Z,23.83
2019-01-25T02:53:29.830Z,24.57
2019-01-25T02:56:01.313Z,25.87
2019-01-25T02:58:33.111Z,23.83
2019-01-25T03:01:04.754Z,28.00
2019-01-25T03:03:36.796Z,26.48
2019-01-25T03:06:08.087Z,24.27
2019-01-25T03:08:39.450Z,25.60
2019-01-25T03:11:10.854Z,25.93
2019-01-25T03:13:43.770Z,27.82
2019-01-25T03:16:15.039Z,27.02
2019-01-25T03:18:46.284Z,23.13
2019-01-25T03:21:17.508Z,24.45
2019-01-25T03:23:48.617Z,23.93
2019-01-25T03:26:20.288Z,24.07
2019-01-25T03:28:51.550Z,28.33
2019-01-25T03:31:22.852Z,27.55
2019-01-25T03:33:54.231Z,30.40
2019-01-25T03:36:26.492Z,29.47
2019-01-25T03:38:57.679Z,25.40
2019-01-25T03:41:29.271Z,24.07
2019-01-25T03:44:00.443Z,25.53
2019-01-25T03:46:33.236Z,23.03
2019-01-25T03:49:04.412Z,24.80
2019-01-25T03:51:36.374Z,25.37
2019-01-25T03:54:08.720Z,23.83
2019-01-25T03:56:41.319Z,22.43
2019-01-25T03:59:12.602Z,23.77
2019-01-25T04:01:45.185Z,24.17
2019-01-25T04:04:16.479Z,26.20
2019-01-25T04:06:47.852Z,26.45
2019-01-25T04:09:19.342Z,28.45
2019-01-25T04:11:50.661Z,26.70
2019-01-25T04:14:21.993Z,27.02
2019-01-25T04:16:53.399Z,25.77
2019-01-25T04:19:25.298Z,25.70
2019-01-25T04:21:56.474Z,25.03
2019-01-25T04:24:28.087Z,26.13
2019-01-25T04:26:59.394Z,26.07
2019-01-25T04:29:30.701Z,28.67
2019-01-25T04:32:02.094Z,26.57
2019-01-25T04:34:33.491Z,25.57
2019-01-25T04:37:06.339Z,23.67
2019-01-25T04:39:37.687Z,24.07
2019-01-25T04:42:08.889Z,24.40
2019-01-25T04:44:41.150Z,27.43
2019-01-25T04:47:13.245Z,25.88
2019-01-25T04:49:46.298Z,25.23
2019-01-25T04:52:17.428Z,26.55
2019-01-25T04:54:48.724Z,23.00
2019-01-25T04:57:19.839Z,26.25
2019-01-25T04:59:51.129Z,25.68
2019-01-25T05:02:22.265Z,26.55
2019-01-25T05:04:53.514Z,27.50
2019-01-25T05:07:24.638Z,26.33
2019-01-25T05:09:55.790Z,29.03
2019-01-25T05:12:29.014Z,26.20
2019-01-25T05:15:00.189Z,25.03
2019-01-25T05:17:31.630Z,27.83
2019-01-25T05:20:03.076Z,27.98
2019-01-25T05:22:34.201Z,27.87
2019-01-25T05:25:07.632Z,27.85
2019-01-25T05:27:38.955Z,26.70
2019-01-25T05:30:11.783Z,23.85
2019-01-25T05:32:42.995Z,29.90
2019-01-25T05:35:15.807Z,27.42
2019-01-25T05:37:47.165Z,30.30
2019-01-25T05:40:24.503Z,29.73
2019-01-25T05:42:55.680Z,29.87
2019-01-25T05:45:26.699Z,26.70
2019-01-25T05:47:58.199Z,27.53
2019-01-25T05:50:29.662Z,30.53
2019-01-25T05:53:00.919Z,26.40
2019-01-25T05:55:32.212Z,27.63
2019-01-25T05:58:04.508Z,29.60
2019-01-25T06:00:40.028Z,25.87
2019-01-25T06:03:13.280Z,31.57
2019-01-25T06:05:45.189Z,30.13
2019-01-25T06:08:33.964Z,27.48
2019-01-25T06:11:10.650Z,32.42
2019-01-25T06:13:46.221Z,28.97
2019-01-25T06:16:18.169Z,30.37
2019-01-25T06:18:49.334Z,30.17
2019-01-25T06:21:20.612Z,33.23
2019-01-25T06:23:55.152Z,39.30
2019-01-25T06:26:26.694Z,40.37
2019-01-25T06:28:57.954Z,37.78
2019-01-25T06:31:29.730Z,28.17
2019-01-25T06:34:03.608Z,29.43
2019-01-25T06:36:34.901Z,28.53
2019-01-25T06:39:09.231Z,25.90
2019-01-25T06:41:44.184Z,26.17
2019-01-25T06:44:13.675Z,27.25
2019-01-25T06:46:44.830Z,29.90
2019-01-25T06:49:17.080Z,27.65
2019-01-25T06:51:48.568Z,30.00
2019-01-25T06:54:19.775Z,32.75
2019-01-25T06:56:51.143Z,29.03
2019-01-25T06:59:25.376Z,29.92
2019-01-25T07:02:04.608Z,28.30
2019-01-25T07:04:35.806Z,32.37
2019-01-25T07:07:15.036Z,31.97
2019-01-25T07:09:46.662Z,30.30
2019-01-25T07:12:18.517Z,29.05
2019-01-25T07:14:49.816Z,30.30
2019-01-25T07:17:22.655Z,31.07
2019-01-25T07:19:54.160Z,28.70
2019-01-25T07:22:25.685Z,30.87
2019-01-25T07:24:58.718Z,30.00
2019-01-25T07:27:31.684Z,32.23
2019-01-25T07:30:02.867Z,32.03
2019-01-25T07:32:35.330Z,30.87
2019-01-25T07:35:07.641Z,30.70
2019-01-25T07:37:39.085Z,32.50
2019-01-25T07:40:10.331Z,40.17
2019-01-25T07:42:42.313Z,32.53
2019-01-25T07:45:14.103Z,33.63
2019-01-25T07:47:45.427Z,32.37
2019-01-25T07:50:16.797Z,30.90
2019-01-25T07:52:48.427Z,31.63
2019-01-25T08:10:27.522Z,34.17
2019-01-25T08:12:58.931Z,37.13
2019-01-25T08:15:30.650Z,35.00
2019-01-25T08:18:01.794Z,34.87
2019-01-25T08:20:33.136Z,34.03
2019-01-25T08:23:04.775Z,33.10
2019-01-25T08:25:37.479Z,37.03
2019-01-25T08:28:09.266Z,40.17
2019-01-25T08:30:40.725Z,40.23
2019-01-25T08:33:12.281Z,41.80
2019-01-25T08:35:43.618Z,35.03
2019-01-25T08:38:15.366Z,37.83
2019-01-25T08:40:46.473Z,37.43
2019-01-25T08:43:17.817Z,37.40
2019-01-25T08:45:50.381Z,38.03
2019-01-25T08:48:22.215Z,34.87
2019-01-25T08:50:53.616Z,31.70
2019-01-25T08:53:24.997Z,37.33
2019-01-25T08:55:57.587Z,34.73
2019-01-25T08:58:28.897Z,35.07
2019-01-25T09:01:00.359Z,35.47
2019-01-25T09:03:32.087Z,38.83
2019-01-25T09:06:03.615Z,38.80
2019-01-25T09:08:35.063Z,39.67
2019-01-25T09:11:06.469Z,38.73
2019-01-25T09:13:37.819Z,39.33
2019-01-25T09:16:11.521Z,39.10
2019-01-25T09:18:42.781Z,39.60
2019-01-25T09:21:14.137Z,39.73
2019-01-25T09:23:46.833Z,39.47
2019-01-25T09:26:18.172Z,39.30
2019-01-25T09:28:50.056Z,36.80
2019-01-25T09:31:21.329Z,41.27
2019-01-25T09:33:52.748Z,40.63
2019-01-25T09:36:26.116Z,41.53
2019-01-25T09:38:57.628Z,44.97
2019-01-25T09:41:29.659Z,39.20
2019-01-25T09:44:01.285Z,41.87
2019-01-25T09:46:32.360Z,42.33
2019-01-25T09:49:03.949Z,42.57
2019-01-25T09:51:36.714Z,42.93
2019-01-25T09:54:07.980Z,41.80
2019-01-25T09:56:39.266Z,45.23
2019-01-25T09:59:10.541Z,44.23
2019-01-25T10:01:41.832Z,41.70
2019-01-25T10:04:13.413Z,43.07
2019-01-25T10:06:44.842Z,43.53
2019-01-25T10:09:16.006Z,44.40
2019-01-25T10:11:47.097Z,46.27
2019-01-25T10:14:19.785Z,47.03
2019-01-25T10:16:50.905Z,43.90
2019-01-25T10:19:22.169Z,43.77
2019-01-25T10:21:53.426Z,46.47
2019-01-25T10:24:24.891Z,46.43
2019-01-25T10:26:57.531Z,44.60
2019-01-25T10:29:30.963Z,45.17
2019-01-25T10:32:02.395Z,48.67
2019-01-25T10:34:33.506Z,45.90
2019-01-25T10:37:05.308Z,42.80
2019-01-25T10:39:37.453Z,43.03
2019-01-25T10:42:08.639Z,43.27
2019-01-25T10:44:41.705Z,44.03
2019-01-25T10:47:12.808Z,44.97
2019-01-25T10:49:44.141Z,43.97
2019-01-25T10:52:15.542Z,46.03
2019-01-25T10:54:46.780Z,40.23
2019-01-25T10:57:18.664Z,41.97
2019-01-25T10:59:49.995Z,41.73
2019-01-25T11:02:21.147Z,44.40
2019-01-25T11:04:52.335Z,40.70
2019-01-25T11:07:23.507Z,43.17
2019-01-25T11:09:54.650Z,42.77
2019-01-25T11:12:25.911Z,44.97
2019-01-25T11:14:57.717Z,41.77
2019-01-25T11:17:36.251Z,45.60
2019-01-25T11:20:02.215Z,46.13
2019-01-25T11:22:33.827Z,42.77
2019-01-25T11:25:06.128Z,47.00
2019-01-25T11:27:38.673Z,47.80
2019-01-25T11:33:27.104Z,55.37
2019-01-25T11:36:00.161Z,51.00
2019-01-25T11:38:31.798Z,48.57
2019-01-25T11:41:03.182Z,50.73
2019-01-25T11:43:34.546Z,47.13
2019-01-25T11:46:05.861Z,50.53
2019-01-25T11:48:37.951Z,47.97
2019-01-25T11:51:08.994Z,46.17
2019-01-25T11:53:42.617Z,48.37
2019-01-25T11:56:13.992Z,48.63
2019-01-25T11:58:45.238Z,47.17
2019-01-25T12:01:16.587Z,50.73
2019-01-25T12:03:47.730Z,47.53
2019-01-25T12:06:18.993Z,43.60
2019-01-25T12:08:51.592Z,45.83
2019-01-25T12:11:22.951Z,48.90
2019-01-25T12:13:53.986Z,47.50
2019-01-25T12:16:25.071Z,50.40
2019-01-25T12:18:56.551Z,54.17
2019-01-25T12:21:27.632Z,48.70
2019-01-25T12:23:58.625Z,53.90
2019-01-25T12:26:30.093Z,53.37
2019-01-25T12:29:02.689Z,55.30
2019-01-25T12:31:34.191Z,54.97
2019-01-25T12:34:05.996Z,54.73
2019-01-25T12:36:37.827Z,56.67
2019-01-25T12:39:10.122Z,52.27
2019-01-25T12:41:41.833Z,56.97
2019-01-25T12:44:13.089Z,58.47
2019-01-25T12:46:44.201Z,62.47
2019-01-25T12:49:17.400Z,61.73
2019-01-25T12:51:58.612Z,63.53
2019-01-25T12:54:29.987Z,65.80
2019-01-25T12:57:01.706Z,63.47
2019-01-25T12:59:32.760Z,61.87
2019-01-25T13:02:03.999Z,61.17
2019-01-25T13:04:36.787Z,58.33
2019-01-25T13:07:10.379Z,65.53
2019-01-25T13:09:41.669Z,63.07
2019-01-25T13:12:12.983Z,65.60
2019-01-25T13:14:44.358Z,60.50
2019-01-25T13:17:15.505Z,65.50
2019-01-25T13:19:47.578Z,69.60
2019-01-25T13:22:18.811Z,62.03
2019-01-25T13:24:50.012Z,65.60
2019-01-25T13:27:21.289Z,67.53
2019-01-25T13:29:52.397Z,66.23
2019-01-25T13:32:23.639Z,63.80
2019-01-25T13:34:55.068Z,65.33
2019-01-25T13:37:31.314Z,60.30
2019-01-25T13:39:59.389Z,63.07
2019-01-25T13:42:30.445Z,67.67
2019-01-25T13:45:02.666Z,63.83
2019-01-25T13:47:33.857Z,64.90
2019-01-25T13:50:06.520Z,67.80
2019-01-25T13:52:37.872Z,72.40
2019-01-25T13:55:11.552Z,66.03
2019-01-25T13:57:44.107Z,70.43
2019-01-25T14:00:24.636Z,70.13
2019-01-25T14:02:56.004Z,70.00
2019-01-25T14:05:29.116Z,67.43
2019-01-25T14:08:01.713Z,68.63
2019-01-25T14:10:34.935Z,69.13
2019-01-25T14:13:06.868Z,61.80
2019-01-25T14:15:38.144Z,61.50
2019-01-25T14:18:09.151Z,48.50
2019-01-25T14:20:40.297Z,53.03
2019-01-25T14:23:11.437Z,56.67
2019-01-25T14:25:42.629Z,51.00
2019-01-25T14:28:15.339Z,55.70
2019-01-25T14:30:46.503Z,53.20
2019-01-25T14:33:17.955Z,49.63
2019-01-25T14:35:49.330Z,55.60
2019-01-25T14:38:20.803Z,49.17
2019-01-25T14:40:53.138Z,50.60
2019-01-25T14:43:24.777Z,56.33
2019-01-25T14:45:56.747Z,52.90
2019-01-25T14:48:28.189Z,53.77
2019-01-25T14:51:00.019Z,54.97
2019-01-25T14:53:31.697Z,53.13
2019-01-25T14:56:03.657Z,54.50
2019-01-25T14:58:34.817Z,53.50
2019-01-25T15:01:06.012Z,53.57
2019-01-25T15:03:37.444Z,57.57
2019-01-25T15:06:09.010Z,57.27
2019-01-25T15:08:40.370Z,58.37
2019-01-25T15:11:11.567Z,57.17
2019-01-25T15:13:43.045Z,64.93
2019-01-25T15:16:14.003Z,58.47
2019-01-25T15:18:46.741Z,61.70
2019-01-25T15:21:18.831Z,61.33
2019-01-25T15:23:50.250Z,64.30
2019-01-25T15:26:21.286Z,58.67
2019-01-25T15:28:52.449Z,56.27
2019-01-25T15:31:24.435Z,57.83
2019-01-25T15:33:55.633Z,57.33
2019-01-25T15:36:27.160Z,61.57
2019-01-25T15:38:59.084Z,58.33
2019-01-25T15:41:30.322Z,61.07
2019-01-25T15:44:01.770Z,57.53
2019-01-25T15:46:35.845Z,58.97
2019-01-25T15:49:07.807Z,62.43
2019-01-25T15:51:38.917Z,63.53
2019-01-25T15:54:10.085Z,61.67
2019-01-25T15:56:41.492Z,61.50
2019-01-25T15:59:12.580Z,63.53
2019-01-25T16:01:43.890Z,63.33
2019-01-25T16:04:16.899Z,64.47
2019-01-25T16:06:49.724Z,64.00
2019-01-25T16:09:23.673Z,64.90
2019-01-25T16:11:56.696Z,66.27
2019-01-25T16:14:30.545Z,63.30
2019-01-25T16:17:02.193Z,63.43
2019-01-25T16:19:33.228Z,65.80
2019-01-25T16:22:04.674Z,69.43
2019-01-25T16:24:35.817Z,69.93
2019-01-25T16:27:07.187Z,68.00
2019-01-25T16:29:38.294Z,71.00
2019-01-25T16:32:09.644Z,71.37
2019-01-25T16:34:41.807Z,72.93
2019-01-25T16:37:14.124Z,65.97
2019-01-25T16:39:45.378Z,71.67
2019-01-25T16:42:19.250Z,75.27
2019-01-25T16:44:50.403Z,70.43
2019-01-25T16:47:21.639Z,71.30
2019-01-25T16:49:52.793Z,70.37
2019-01-25T16:52:23.854Z,70.40
2019-01-25T16:54:55.042Z,67.10
2019-01-25T16:57:26.208Z,69.63
2019-01-25T16:59:59.631Z,73.97
2019-01-25T17:02:30.624Z,72.80
2019-01-25T17:05:03.595Z,73.73
2019-01-25T17:07:34.929Z,75.53
2019-01-25T17:10:08.669Z,74.17
2019-01-25T17:12:39.731Z,81.77
2019-01-25T17:15:11.160Z,71.60
2019-01-25T17:17:42.168Z,75.67
2019-01-25T17:20:19.120Z,75.73
2019-01-25T17:22:48.497Z,79.77
2019-01-25T17:25:19.821Z,80.83
2019-01-25T17:27:52.779Z,81.90
2019-01-25T17:30:26.046Z,79.13
2019-01-25T17:32:58.536Z,88.50
2019-01-25T17:35:31.508Z,85.37
2019-01-25T17:38:03.280Z,90.27
2019-01-25T17:40:46.684Z,95.87
2019-01-25T17:43:18.379Z,92.40
2019-01-25T17:45:50.183Z,95.67
2019-01-25T17:48:21.373Z,97.00
2019-01-25T17:50:52.607Z,101.43
2019-01-25T17:53:23.861Z,99.87
2019-01-25T17:55:54.954Z,104.20
2019-01-25T17:58:26.954Z,102.13
2019-01-25T18:00:58.445Z,97.07
2019-01-25T18:03:31.119Z,106.30
2019-01-25T18:06:03.642Z,99.17
2019-01-25T18:08:35.050Z,103.73
2019-01-25T18:11:06.496Z,99.40
2019-01-25T18:13:37.988Z,100.33
2019-01-25T18:16:09.310Z,98.50
2019-01-25T18:18:42.286Z,101.13
2019-01-25T18:21:13.285Z,97.90
2019-01-25T18:23:44.569Z,98.57
2019-01-25T18:26:25.840Z,95.27
2019-01-25T18:29:19.918Z,95.90
2019-01-25T18:31:50.956Z,92.80
2019-01-25T18:34:22.193Z,97.37
2019-01-25T18:36:53.355Z,93.60
2019-01-25T18:39:25.764Z,94.13
2019-01-25T18:41:56.938Z,93.90
2019-01-25T18:44:27.954Z,91.50
2019-01-25T18:47:00.005Z,92.53
2019-01-25T18:49:31.076Z,92.23
2019-01-25T18:52:02.369Z,93.13
2019-01-25T18:54:33.334Z,94.53
2019-01-25T18:57:04.539Z,89.40
2019-01-25T18:59:35.988Z,86.20
2019-01-25T19:02:07.373Z,91.07
2019-01-25T19:04:39.070Z,88.00
2019-01-25T19:07:10.334Z,82.83
2019-01-25T19:09:41.425Z,85.60
2019-01-25T19:12:12.746Z,88.00
2019-01-25T19:14:43.986Z,84.97
2019-01-25T19:17:15.992Z,84.33
2019-01-25T19:19:47.087Z,86.77
2019-01-25T19:22:19.635Z,85.53
2019-01-25T19:24:51.144Z,82.33
2019-01-25T19:27:22.450Z,83.43
2019-01-25T19:29:53.655Z,89.27
2019-01-25T19:32:24.990Z,83.30
2019-01-25T19:34:55.978Z,85.40
2019-01-25T19:37:30.049Z,81.37
2019-01-25T19:40:01.540Z,82.73
2019-01-25T19:42:33.268Z,84.33
2019-01-25T19:45:11.703Z,87.87
2019-01-25T19:47:38.851Z,85.03
2019-01-25T19:50:12.647Z,86.87
2019-01-25T19:52:44.249Z,82.33
2019-01-25T19:55:18.306Z,86.20
2019-01-25T19:57:49.312Z,78.70
2019-01-25T20:00:23.426Z,79.33
2019-01-25T20:02:54.788Z,81.77
2019-01-25T20:05:27.206Z,83.50
2019-01-25T20:07:58.619Z,78.73
2019-01-25T20:10:29.896Z,79.23
2019-01-25T20:13:01.597Z,77.33
2019-01-25T20:15:33.106Z,76.23
2019-01-25T20:18:04.836Z,76.20
2019-01-25T20:20:36.445Z,76.87
2019-01-25T20:23:08.143Z,76.77
2019-01-25T20:25:40.703Z,78.70
2019-01-25T20:28:12.187Z,76.10
2019-01-25T20:30:49.560Z,74.17
2019-01-25T20:33:17.497Z,74.60
2019-01-25T20:35:48.855Z,75.97
2019-01-25T20:38:21.397Z,72.00
2019-01-25T20:40:52.684Z,72.27
2019-01-25T20:43:24.193Z,74.13
2019-01-25T20:45:55.363Z,70.03
2019-01-25T20:48:27.963Z,64.13
2019-01-25T20:50:59.264Z,66.37
2019-01-25T20:53:31.857Z,58.17
2019-01-25T20:56:02.974Z,50.03
2019-01-25T20:58:34.282Z,62.13
2019-01-25T21:01:05.596Z,61.53
2019-01-25T21:03:37.019Z,54.53
2019-01-25T21:06:09.705Z,55.43
2019-01-25T21:08:40.865Z,53.40
2019-01-25T21:11:12.024Z,48.17
2019-01-25T21:13:43.566Z,51.33
2019-01-25T21:16:14.916Z,53.83
2019-01-25T21:18:46.437Z,51.00
2019-01-25T21:21:18.162Z,52.87
2019-01-25T21:23:49.240Z,53.50
2019-01-25T21:26:21.435Z,53.27
2019-01-25T21:28:53.796Z,56.27
2019-01-25T21:31:25.388Z,56.93
2019-01-25T21:33:56.364Z,55.23
2019-01-25T21:36:27.501Z,58.83
2019-01-25T21:38:58.849Z,57.27
2019-01-25T21:41:30.051Z,57.40
2019-01-25T21:44:01.166Z,57.13
2019-01-25T21:46:39.833Z,57.60
2019-01-25T21:49:05.422Z,57.40
2019-01-25T21:51:36.730Z,53.00
2019-01-25T21:54:08.991Z,59.17
2019-01-25T21:56:40.100Z,58.83
2019-01-25T21:59:11.600Z,60.33
2019-01-25T22:01:42.750Z,57.27
2019-01-25T22:04:14.831Z,65.00
2019-01-25T22:06:47.143Z,64.90
2019-01-25T22:09:18.430Z,63.67
2019-01-25T22:11:49.653Z,67.67
2019-01-25T22:14:21.223Z,71.13
2019-01-25T22:16:53.633Z,69.23
2019-01-25T22:19:24.883Z,70.77
2019-01-25T22:21:56.193Z,73.23
2019-01-25T22:24:29.104Z,72.60
2019-01-25T22:27:00.922Z,74.40
2019-01-25T22:29:32.663Z,75.33
2019-01-25T22:32:03.826Z,71.73
2019-01-25T22:34:35.137Z,76.50
2019-01-25T22:37:06.541Z,75.27
2019-01-25T22:39:38.941Z,77.10
2019-01-25T22:42:10.381Z,72.67
2019-01-25T22:44:42.941Z,77.70
2019-01-25T22:47:20.237Z,73.23
2019-01-25T22:49:47.048Z,76.60
2019-01-25T22:52:18.266Z,78.10
2019-01-25T22:54:49.488Z,80.23
2019-01-25T22:57:20.613Z,81.10
2019-01-25T22:59:51.798Z,80.40
2019-01-25T23:02:23.160Z,83.43
2019-01-25T23:05:05.956Z,82.90
2019-01-25T23:07:37.165Z,80.17
2019-01-25T23:10:16.893Z,82.77
2019-01-25T23:12:48.508Z,86.87
2019-01-25T23:15:21.656Z,86.07
2019-01-25T23:17:52.591Z,91.97
2019-01-25T23:20:23.592Z,90.13
2019-01-25T23:22:54.671Z,93.70
2019-01-25T23:25:26.155Z,93.13
2019-01-25T23:27:57.270Z,97.03
2019-01-25T23:30:28.331Z,95.33
2019-01-25T23:32:59.455Z,96.77
2019-01-25T23:35:30.626Z,97.60
2019-01-25T23:38:02.185Z,96.67
2019-01-25T23:40:34.792Z,97.27
2019-01-25T23:43:07.070Z,101.63
2019-01-25T23:45:38.650Z,102.60
2019-01-25T23:48:09.769Z,103.60
2019-01-25T23:50:42.687Z,107.27
2019-01-25T23:53:13.734Z,106.93
2019-01-25T23:55:44.752Z,105.10
2019-01-25T23:58:16.269Z,106.23
